Time;durP1;ratioP1;P1;durP2;ratioP2;P2;SDS_P1;SDS_P2;PMS_P1;PMS_P2;Temp;Humidity;BMP_temperature;BMP_pressure;BME280_temperature;BME280_humidity;BME280_pressure;Samples;Min_cycle;Max_cycle;Signal;HPM_P1;HPM_P2
2024/03/17 00:00:18;;;;;;;;;;;;;;;7.96;100.00;93252.75;5017460;28;20037;-75
2024/03/17 00:02:44;;;;;;;30.92;20.77;;;;;;;7.78;100.00;93227.69;5026245;28;19928;-75
2024/03/17 00:05:10;;;;;;;33.22;23.20;;;;;;;7.63;100.00;93207.41;5023430;28;20026;-76
2024/03/17 00:07:35;;;;;;;32.72;22.00;;;;;;;7.83;100.00;93224.59;5020094;28;20033;-76
2024/03/17 00:10:00;;;;;;;28.67;20.38;;;;;;;7.87;100.00;93226.56;5022564;28;20075;-76
2024/03/17 00:12:26;;;;;;;29.73;20.02;;;;;;;7.73;100.00;93207.84;5019509;28;20030;-74
2024/03/17 00:14:52;;;;;;;27.38;19.45;;;;;;;7.70;100.00;93208.22;5020064;28;20397;-75
2024/03/17 00:17:17;;;;;;;26.88;19.42;;;;;;;7.74;100.00;93200.97;5021840;28;20098;-76
2024/03/17 00:19:43;;;;;;;25.83;19.63;;;;;;;7.70;100.00;93197.22;5022430;28;20496;-76
2024/03/17 00:22:13;;;;;;;33.05;21.70;;;;;;;7.96;100.00;93241.75;5021172;28;20045;-76
2024/03/17 00:24:39;;;;;;;31.10;22.17;;;;;;;7.70;100.00;93198.00;5019411;28;20425;-76
2024/03/17 00:27:04;;;;;;;35.25;24.50;;;;;;;7.94;100.00;93241.94;5023872;28;20034;-76
2024/03/17 00:29:30;;;;;;;34.70;23.73;;;;;;;7.92;100.00;93233.66;5018268;28;21340;-76
2024/03/17 00:31:56;;;;;;;34.10;22.17;;;;;;;7.59;100.00;93189.09;5021483;28;20044;-75
2024/03/17 00:34:22;;;;;;;32.90;22.63;;;;;;;7.61;100.00;93187.16;5022600;28;20042;-76
2024/03/17 00:36:47;;;;;;;40.10;27.00;;;;;;;7.84;100.00;93226.97;5021757;28;20029;-76
2024/03/17 00:39:14;;;;;;;39.05;27.27;;;;;;;7.62;100.00;93196.41;5020737;28;20465;-76
2024/03/17 00:41:40;;;;;;;29.88;21.70;;;;;;;7.68;100.00;93219.63;5021392;28;20034;-76
2024/03/17 00:44:06;;;;;;;31.65;22.38;;;;;;;7.71;100.00;93216.69;5020946;28;20402;-76
2024/03/17 00:46:31;;;;;;;;;;;;;;;7.88;100.00;93238.38;5020397;28;20128;-76
2024/03/17 00:48:59;;;;;;;35.05;22.33;;;;;;;7.81;100.00;93229.09;5019784;28;20020;-76
2024/03/17 00:51:25;;;;;;;26.20;20.33;;;;;;;7.82;100.00;93235.81;5022389;28;20394;-76
2024/03/17 00:53:50;;;;;;;30.40;22.48;;;;;;;7.74;100.00;93194.06;5018894;28;20040;-76
2024/03/17 00:56:16;;;;;;;32.10;22.65;;;;;;;7.70;100.00;93185.22;5025609;28;20474;-76
2024/03/17 00:58:42;;;;;;;31.42;20.83;;;;;;;7.80;100.00;93200.19;5018365;28;20029;-76
2024/03/17 01:01:07;;;;;;;;;;;;;;;8.07;100.00;93235.28;5020656;28;20041;-76
2024/03/17 01:03:33;;;;;;;36.05;25.05;;;;;;;7.13;100.00;93113.06;5023261;28;19924;-76
2024/03/17 01:05:58;;;;;;;27.27;19.58;;;;;;;7.94;100.00;93234.25;5023761;28;20025;-76
2024/03/17 01:08:24;;;;;;;28.17;19.00;;;;;;;7.55;100.00;93180.22;5022149;28;20029;-76
2024/03/17 01:10:50;;;;;;;25.90;18.73;;;;;;;7.69;100.00;93208.41;5024731;28;20033;-76
2024/03/17 01:13:17;;;;;;;22.38;17.70;;;;;;;7.68;100.00;93224.75;5020745;28;20063;-76
2024/03/17 01:15:43;;;;;;;27.08;18.25;;;;;;;7.48;100.00;93228.00;5025263;28;20026;-76
2024/03/17 01:18:09;;;;;;;;;;;;;;;7.51;100.00;93242.97;5018165;28;20044;-76
2024/03/17 01:20:35;;;;;;;25.10;17.42;;;;;;;7.11;100.00;93205.22;5005152;28;19925;-76
2024/03/17 01:23:02;;;;;;;25.95;19.02;;;;;;;7.20;100.00;93221.97;5000451;28;20042;-76
2024/03/17 01:25:29;;;;;;;;;;;;;;;7.30;100.00;93231.84;5013630;28;20033;-76
2024/03/17 01:27:56;;;;;;;32.28;21.83;;;;;;;7.14;100.00;93234.69;5024039;28;19913;-76
2024/03/17 01:30:21;;;;;;;29.83;21.15;;;;;;;6.98;100.00;93211.03;5020919;28;20049;-76
2024/03/17 01:32:47;;;;;;;30.30;21.60;;;;;;;6.81;100.00;93192.66;5019728;28;20034;-76
2024/03/17 01:35:13;;;;;;;28.02;20.73;;;;;;;7.14;100.00;93239.81;5018032;28;20523;-75
2024/03/17 01:37:39;;;;;;;;;;;;;;;7.21;100.00;93240.63;5024423;28;20023;-76
2024/03/17 01:40:14;;;;;;;30.33;20.77;;;;;;;7.11;100.00;93235.84;5020481;28;19921;-76
2024/03/17 01:42:41;;;;;;;28.15;21.55;;;;;;;7.12;100.00;93242.53;5019111;28;20030;-76
2024/03/17 01:45:28;;;;;;;29.15;21.33;;;;;;;7.09;100.00;93243.69;5019093;28;20030;-75
2024/03/17 01:47:57;;;;;;;27.27;20.70;;;;;;;7.04;100.00;93240.16;5017492;28;20068;-76
2024/03/17 01:50:24;;;;;;;27.05;20.67;;;;;;;6.99;100.00;93232.25;5021211;28;20040;-75
2024/03/17 01:52:52;;;;;;;27.08;21.15;;;;;;;6.72;100.00;93197.13;5021218;28;20030;-75
2024/03/17 01:55:18;;;;;;;30.35;21.83;;;;;;;6.71;100.00;93202.41;5021431;28;20033;-76
2024/03/17 01:57:44;;;;;;;31.98;22.90;;;;;;;6.83;100.00;93226.44;5020837;28;20029;-75
2024/03/17 02:00:12;;;;;;;30.20;21.52;;;;;;;6.74;100.00;93219.88;5024531;28;20061;-75
2024/03/17 02:02:38;;;;;;;33.83;22.35;;;;;;;6.73;100.00;93218.31;5018554;28;20053;-75
2024/03/17 02:05:04;;;;;;;30.23;21.95;;;;;;;6.83;100.00;93239.22;5020409;28;20048;-75
2024/03/17 02:07:29;;;;;;;29.42;20.98;;;;;;;6.50;100.00;93201.47;5024810;28;20038;-75
2024/03/17 02:09:56;;;;;;;29.70;20.90;;;;;;;6.52;100.00;93209.72;5023823;28;20076;-75
2024/03/17 02:12:23;;;;;;;30.08;21.10;;;;;;;6.64;100.00;93230.44;5019858;28;20042;-75
2024/03/17 02:14:48;;;;;;;30.42;21.80;;;;;;;6.50;100.00;93230.34;5022109;28;20358;-75
2024/03/17 02:17:14;;;;;;;36.17;22.88;;;;;;;6.25;100.00;93196.75;5024945;28;20036;-74
2024/03/17 02:19:39;;;;;;;45.60;29.13;;;;;;;6.19;100.00;93192.34;5023217;28;20567;-74
2024/03/17 02:22:13;;;;;;;35.20;23.98;;;;;;;6.43;100.00;93241.44;5027313;28;20033;-75
2024/03/17 02:24:38;;;;;;;32.45;24.08;;;;;;;5.91;100.00;93170.91;5022062;28;20400;-76
2024/03/17 02:27:04;;;;;;;36.22;24.38;;;;;;;6.19;100.00;93218.66;5027675;28;20026;-76
2024/03/17 02:29:29;;;;;;;31.52;23.23;;;;;;;6.01;100.00;93201.19;5021223;28;20949;-75
2024/03/17 02:31:55;;;;;;;32.42;23.52;;;;;;;6.00;100.00;93186.88;5023238;28;20065;-75
2024/03/17 02:34:21;;;;;;;33.17;24.25;;;;;;;6.20;100.00;93233.00;5028195;28;20061;-75
2024/03/17 02:36:46;;;;;;;35.03;25.25;;;;;;;5.26;100.00;93095.19;5026086;28;20065;-75
2024/03/17 02:41:56;;;;;;;38.00;25.60;;;;;;;6.06;100.00;93234.63;5025886;28;20045;-75
2024/03/17 02:44:21;;;;;;;33.33;24.48;;;;;;;5.93;100.00;93217.41;5027586;28;20037;-75
2024/03/17 02:46:47;;;;;;;33.13;23.00;;;;;;;6.04;100.00;93223.81;5024741;28;20037;-76
2024/03/17 02:49:14;;;;;;;;;;;;;;;6.07;100.00;93236.19;5025068;28;20152;-76
2024/03/17 02:51:39;;;;;;;28.05;20.60;;;;;;;5.79;100.00;93205.50;5024278;28;19920;-76
2024/03/17 02:54:05;;;;;;;24.98;18.50;;;;;;;5.83;100.00;93232.22;5025918;28;20026;-75
2024/03/17 02:56:31;;;;;;;;;;;;;;;5.83;100.00;93232.22;5022775;28;20045;-75
2024/03/17 02:58:57;;;;;;;25.38;17.15;;;;;;;5.69;100.00;93237.16;5026725;28;19913;-75
2024/03/17 03:01:22;;;;;;;24.17;17.98;;;;;;;5.64;100.00;93223.38;5024445;28;20036;-75
2024/03/17 03:03:48;;;;;;;25.20;18.23;;;;;;;5.42;100.00;93190.19;5022176;28;20111;-75
2024/03/17 03:06:17;;;;;;;25.38;18.23;;;;;;;5.33;100.00;93197.91;5025120;28;20116;-75
2024/03/17 03:08:43;;;;;;;24.25;18.83;;;;;;;5.49;100.00;93219.06;5024955;28;20036;-75
2024/03/17 03:11:11;;;;;;;25.15;19.02;;;;;;;4.97;100.00;93140.09;5024723;28;20026;-76
2024/03/17 03:13:42;;;;;;;29.33;20.52;;;;;;;5.51;100.00;93219.69;5022963;28;20042;-76
2024/03/17 03:16:11;;;;;;;30.08;20.23;;;;;;;5.37;100.00;93205.22;5025800;28;20083;-76
2024/03/17 03:18:37;;;;;;;31.27;22.00;;;;;;;4.72;100.00;93104.72;5022248;28;20040;-75
2024/03/17 03:21:04;;;;;;;30.17;20.50;;;;;;;5.28;100.00;93195.09;5024419;28;20099;-75
2024/03/17 03:23:29;;;;;;;;;;;;;;;5.57;100.00;93234.28;5022441;28;20033;-75
2024/03/17 03:25:59;;;;;;;34.10;23.33;;;;;;;5.36;100.00;93212.06;5024398;28;19928;-75
2024/03/17 03:28:25;;;;;;;37.08;26.67;;;;;;;4.94;100.00;93158.25;5024273;28;20547;-75
2024/03/17 03:30:54;;;;;;;35.63;24.73;;;;;;;5.39;100.00;93229.56;5022702;28;20049;-75
2024/03/17 03:33:20;;;;;;;36.92;26.17;;;;;;;5.27;100.00;93213.13;5022876;28;20040;-75
2024/03/17 03:35:45;;;;;;;;;;;;;;;5.44;100.00;93241.75;5025508;28;20057;-74
2024/03/17 03:38:13;;;;;;;40.08;25.83;;;;;;;5.29;100.00;93226.47;5024436;28;20371;-75
2024/03/17 03:40:39;;;;;;;55.15;36.28;;;;;;;5.08;100.00;93198.22;5024473;28;20026;-75
2024/03/17 03:43:04;;;;;;;50.00;32.72;;;;;;;5.10;100.00;93199.78;5025642;28;20063;-75
2024/03/17 03:45:30;;;;;;;46.47;30.13;;;;;;;5.17;100.00;93208.28;5020326;28;20033;-75
2024/03/17 03:47:55;;;;;;;48.38;30.65;;;;;;;5.06;100.00;93207.75;5022506;28;20450;-75
2024/03/17 03:50:22;;;;;;;48.97;31.55;;;;;;;4.96;100.00;93186.88;5020623;28;20038;-75
2024/03/17 03:52:49;;;;;;;45.47;30.50;;;;;;;4.34;100.00;93109.88;5022330;28;20029;-76
2024/03/17 03:55:16;;;;;;;51.75;31.73;;;;;;;4.99;100.00;93203.56;5024531;28;20041;-75
2024/03/17 03:57:42;;;;;;;40.40;28.27;;;;;;;5.11;100.00;93224.28;5022989;28;20099;-75
2024/03/17 04:00:14;;;;;;;42.97;27.83;;;;;;;4.88;100.00;93199.69;5023294;28;20029;-75
2024/03/17 04:02:42;;;;;;;37.63;26.48;;;;;;;4.83;100.00;93200.22;5023905;28;20052;-75
2024/03/17 04:05:08;;;;;;;36.70;27.17;;;;;;;5.02;100.00;93228.66;5020270;28;20038;-75
2024/03/17 04:07:34;;;;;;;34.85;24.63;;;;;;;5.07;100.00;93239.91;5024792;28;20068;-75
2024/03/17 04:10:00;;;;;;;36.05;24.08;;;;;;;4.61;100.00;93173.84;5023622;28;20449;-75
2024/03/17 04:12:25;;;;;;;;;;;;;;;5.12;100.00;93253.84;5023572;28;20048;-75
2024/03/17 04:14:53;;;;;;;33.50;24.13;;;;;;;4.78;100.00;93223.63;5024838;28;19999;-75
2024/03/17 04:17:23;;;;;;;34.83;24.50;;;;;;;4.71;100.00;93217.66;5024175;28;20052;-75
2024/03/17 04:19:48;;;;;;;35.30;24.77;;;;;;;4.52;100.00;93201.13;5017813;28;20496;-75
2024/03/17 04:22:15;;;;;;;35.22;23.52;;;;;;;4.91;100.00;93270.63;5022892;28;20037;-75
2024/03/17 04:24:40;;;;;;;36.33;25.30;;;;;;;4.61;100.00;93228.09;5021031;28;20049;-75
2024/03/17 04:27:06;;;;;;;42.47;27.17;;;;;;;4.82;100.00;93263.03;5023729;28;20030;-75
2024/03/17 04:29:31;;;;;;;53.35;32.67;;;;;;;4.71;100.00;93249.97;5022695;28;20044;-75
2024/03/17 04:31:57;;;;;;;57.60;34.72;;;;;;;4.69;100.00;93255.22;5025577;28;20378;-76
2024/03/17 04:34:22;;;;;;;76.47;43.17;;;;;;;4.53;100.00;93239.13;5022179;28;20030;-76
2024/03/17 04:36:48;;;;;;;76.13;45.95;;;;;;;4.51;100.00;93240.25;5024735;28;20025;-76
2024/03/17 04:39:13;;;;;;;80.55;47.15;;;;;;;4.79;100.00;93281.22;5021134;28;20124;-76
2024/03/17 04:41:40;;;;;;;67.28;40.42;;;;;;;4.60;100.00;93258.78;5023136;28;20108;-75
2024/03/17 04:44:06;;;;;;;53.88;33.70;;;;;;;3.86;100.00;93161.75;5020109;28;20092;-75
2024/03/17 04:46:32;;;;;;;49.15;31.27;;;;;;;4.43;100.00;93250.50;5021037;28;20042;-75
2024/03/17 04:48:58;;;;;;;;;;;;;;;4.74;100.00;93288.56;5023622;28;20032;-75
2024/03/17 04:51:23;;;;;;;44.30;28.88;;;;;;;4.64;100.00;93293.88;5019049;28;19917;-75
2024/03/17 04:53:49;;;;;;;45.88;28.23;;;;;;;4.39;100.00;93261.00;5022618;28;20120;-75
2024/03/17 04:56:14;;;;;;;40.92;27.35;;;;;;;4.65;100.00;93295.47;5022471;28;20041;-75
2024/03/17 04:58:40;;;;;;;40.88;27.02;;;;;;;4.57;100.00;93280.25;5022598;28;20060;-75
2024/03/17 05:01:08;;;;;;;42.47;27.15;;;;;;;4.73;100.00;93307.34;5026802;28;20087;-75
2024/03/17 05:03:34;;;;;;;44.50;27.10;;;;;;;4.66;100.00;93283.53;5024905;28;20077;-75
2024/03/17 05:06:03;;;;;;;;;;;;;;;4.80;100.00;93307.44;5039716;28;20021;-75
2024/03/17 05:08:30;;;;;;;42.40;27.00;;;;;;;4.52;100.00;93274.91;5036918;28;19928;-75
2024/03/17 05:10:57;;;;;;;44.08;26.02;;;;;;;4.61;100.00;93296.78;5035805;28;20037;-76
2024/03/17 05:13:23;;;;;;;43.05;25.80;;;;;;;4.11;100.00;93220.03;5040108;28;20040;-75
2024/03/17 05:15:48;;;;;;;54.72;30.15;;;;;;;4.62;100.00;93285.63;5041182;28;20021;-76
2024/03/17 05:18:14;;;;;;;58.67;32.63;;;;;;;4.88;100.00;93325.22;5038652;28;20413;-76
2024/03/17 05:20:39;;;;;;;60.20;33.80;;;;;;;4.81;100.00;93312.38;5031433;28;20126;-76
2024/03/17 05:23:04;;;;;;;53.03;32.63;;;;;;;4.65;100.00;93274.31;5031702;28;20041;-76
2024/03/17 05:25:32;;;;;;;53.75;31.10;;;;;;;4.71;100.00;93288.13;5038145;28;20040;-75
2024/03/17 05:27:58;;;;;;;50.67;30.35;;;;;;;4.98;100.00;93327.50;5031414;28;20478;-76
2024/03/17 05:30:24;;;;;;;57.35;35.05;;;;;;;4.81;100.00;93293.75;5035507;28;20044;-76
2024/03/17 05:32:49;;;;;;;62.65;34.63;;;;;;;5.10;100.00;93327.91;5026739;28;20064;-76
2024/03/17 05:35:15;;;;;;;61.05;32.80;;;;;;;4.98;100.00;93286.78;5040140;28;20067;-75
2024/03/17 05:37:40;;;;;;;47.40;31.10;;;;;;;5.02;100.00;93292.31;5040421;28;20090;-75
2024/03/17 05:40:06;;;;;;;51.65;31.58;;;;;;;5.35;100.00;93297.91;5031127;28;20374;-75
2024/03/17 05:42:32;;;;;;;55.30;31.67;;;;;;;5.04;100.00;93242.00;5033147;28;20042;-75
2024/03/17 05:44:57;;;;;;;53.08;32.13;;;;;;;5.54;100.00;93313.63;5037851;28;20052;-75
2024/03/17 05:47:23;;;;;;;57.20;33.85;;;;;;;5.34;100.00;93281.00;5030160;28;20769;-75
2024/03/17 05:49:48;;;;;;;51.42;32.47;;;;;;;5.77;100.00;93329.75;5040233;28;20060;-76
2024/03/17 05:52:14;;;;;;;57.65;30.50;;;;;;;5.50;100.00;93279.25;5027202;28;20044;-76
2024/03/17 05:54:39;;;;;;;51.08;30.90;;;;;;;5.87;100.00;93325.19;5040962;28;20033;-75
2024/03/17 05:57:05;;;;;;;48.50;29.95;;;;;;;5.74;100.00;93300.34;5043553;28;20431;-76
2024/03/17 05:59:33;;;;;;;47.17;30.73;;;;;;;5.73;100.00;93284.25;5041635;28;20146;-76
2024/03/17 06:01:59;;;;;;;50.95;31.60;;;;;;;6.15;100.00;93342.41;5042425;28;20053;-76
2024/03/17 06:04:24;;;;;;;44.88;28.60;;;;;;;6.24;100.00;93335.44;5048375;28;20067;-76
2024/03/17 06:06:50;;;;;;;44.10;29.25;;;;;;;6.15;100.00;93296.50;5040261;28;20500;-75
2024/03/17 06:09:18;;;;;;;43.00;30.60;;;;;;;6.29;100.00;93302.53;5045318;28;20033;-76
2024/03/17 06:11:44;;;;;;;51.90;31.85;;;;;;;6.48;100.00;93315.69;5042019;28;20518;-75
2024/03/17 06:14:12;;;;;;;51.30;29.73;;;;;;;6.39;100.00;93269.88;5037969;28;20033;-75
2024/03/17 06:16:37;;;;;;;46.75;30.10;;;;;;;6.75;100.00;93303.19;5039963;28;20038;-75
2024/03/17 06:19:03;;;;;;;49.00;29.65;;;;;;;7.29;100.00;93337.59;5024155;28;20053;-76
2024/03/17 06:21:29;;;;;;;45.78;29.60;;;;;;;7.19;100.00;93309.00;5036735;28;20058;-75
2024/03/17 06:23:54;;;;;;;48.53;29.70;;;;;;;7.42;100.00;93321.56;5038635;28;20029;-75
2024/03/17 06:26:20;;;;;;;43.10;28.08;;;;;;;7.66;100.00;93334.88;5042926;28;20033;-75
2024/03/17 06:28:46;;;;;;;38.70;26.23;;;;;;;7.60;100.00;93299.81;5045448;28;20037;-76
2024/03/17 06:31:12;;;;;;;44.67;26.98;;;;;;;8.03;100.00;93337.19;5044140;28;20028;-76
2024/03/17 06:33:37;;;;;;;40.22;26.75;;;;;;;8.01;100.00;93316.16;5046180;28;20025;-75
2024/03/17 06:36:04;;;;;;;39.65;27.02;;;;;;;8.17;100.00;93322.69;5045135;28;20140;-75
2024/03/17 06:38:31;;;;;;;50.53;28.30;;;;;;;8.25;100.00;93327.63;5040859;28;20868;-76
2024/03/17 06:40:56;;;;;;;45.83;28.42;;;;;;;8.36;100.00;93330.63;5042988;28;20083;-75
2024/03/17 06:43:22;;;;;;;44.85;28.55;;;;;;;8.65;100.00;93362.81;5038307;28;20041;-75
2024/03/17 06:45:58;;;;;;;44.47;27.95;;;;;;;8.85;100.00;93359.53;5046839;28;20139;-75
2024/03/17 06:48:23;;;;;;;;;;;;;;;9.08;100.00;93373.75;5036549;28;20034;-74
2024/03/17 06:50:49;;;;;;;48.90;29.40;;;;;;;9.13;100.00;93360.34;5035105;28;19974;-74
2024/03/17 06:53:15;;;;;;;47.03;29.35;;;;;;;9.07;100.00;93334.50;5044555;28;21026;-74
2024/03/17 06:55:40;;;;;;;43.08;26.70;;;;;;;9.45;100.00;93357.97;5045307;28;20067;-73
2024/03/17 06:58:06;;;;;;;46.83;28.23;;;;;;;9.59;100.00;93353.63;5040100;28;20441;-73
2024/03/17 07:00:32;;;;;;;52.08;31.48;;;;;;;9.74;99.63;93367.00;5044044;28;20389;-73
2024/03/17 07:02:57;;;;;;;48.78;30.25;;;;;;;9.61;97.00;93319.09;5044455;28;20053;-73
2024/03/17 07:05:23;;;;;;;55.35;32.33;;;;;;;9.72;96.32;93337.41;5044045;28;20152;-74
2024/03/17 07:07:49;;;;;;;51.15;30.70;;;;;;;9.88;97.60;93333.63;5038694;28;20091;-73
2024/03/17 07:10:15;;;;;;;52.63;30.88;;;;;;;10.11;92.97;93374.22;5043137;28;20045;-73
2024/03/17 07:12:41;;;;;;;52.13;29.63;;;;;;;10.36;94.60;93373.53;5038654;28;20036;-73
2024/03/17 07:15:08;;;;;;;61.70;32.92;;;;;;;9.92;93.25;93274.97;5040743;28;20102;-73
2024/03/17 07:17:33;;;;;;;60.78;34.78;;;;;;;10.77;90.35;93388.78;5041593;28;20120;-73
2024/03/17 07:19:59;;;;;;;76.93;40.20;;;;;;;10.12;90.06;93329.59;5041597;28;20477;-73
2024/03/17 07:22:28;;;;;;;74.07;40.97;;;;;;;9.53;92.26;93269.78;5042720;28;20037;-74
2024/03/17 07:24:58;;;;;;;69.55;35.25;;;;;;;10.35;92.08;93336.00;5040949;28;20028;-74
2024/03/17 07:27:23;;;;;;;71.85;36.38;;;;;;;10.45;92.57;93371.56;5040388;28;21038;-76
2024/03/17 07:29:49;;;;;;;59.30;33.75;;;;;;;10.63;90.39;93370.88;5042328;28;20032;-74
2024/03/17 07:32:14;;;;;;;67.35;36.83;;;;;;;10.53;89.75;93337.94;5038954;28;20048;-75
2024/03/17 07:34:40;;;;;;;63.33;32.53;;;;;;;10.47;89.61;93317.41;5040428;28;20051;-73
2024/03/17 07:37:05;;;;;;;54.25;30.52;;;;;;;10.72;87.73;93330.31;5040940;28;20366;-74
2024/03/17 07:39:32;;;;;;;53.83;31.05;;;;;;;11.22;91.21;93339.84;5041524;28;20120;-73
2024/03/17 07:42:01;;;;;;;54.28;30.70;;;;;;;10.86;86.01;93343.88;5040120;28;20040;-73
2024/03/17 07:44:28;;;;;;;51.92;27.30;;;;;;;10.71;85.85;93331.31;5038249;28;20572;-74
2024/03/17 07:46:54;;;;;;;50.35;20.30;;;;;;;11.01;85.92;93360.78;5039274;28;20037;-74
2024/03/17 07:49:20;;;;;;;38.90;17.33;;;;;;;11.05;84.28;93370.44;5040407;28;20031;-74
2024/03/17 07:51:46;;;;;;;41.20;19.15;;;;;;;11.40;85.46;93369.19;5041204;28;20435;-74
2024/03/17 07:54:13;;;;;;;51.38;20.83;;;;;;;11.26;84.88;93339.44;5041655;28;20067;-74
2024/03/17 07:56:39;;;;;;;59.33;21.90;;;;;;;11.30;83.36;93328.50;5043383;28;20548;-74
2024/03/17 07:59:11;;;;;;;72.47;22.90;;;;;;;11.23;82.32;93309.78;5042909;28;20038;-74
2024/03/17 08:01:36;;;;;;;86.25;28.30;;;;;;;11.55;80.63;93334.63;5042303;28;20029;-74
2024/03/17 08:04:03;;;;;;;86.03;24.92;;;;;;;11.47;83.90;93333.13;5038413;28;20049;-74
2024/03/17 08:06:29;;;;;;;68.22;24.52;;;;;;;11.99;82.48;93360.34;5041389;28;20036;-74
2024/03/17 08:08:54;;;;;;;78.03;23.75;;;;;;;12.42;83.55;93364.63;5039575;28;20033;-74
2024/03/17 08:11:20;;;;;;;56.35;22.15;;;;;;;11.79;79.15;93317.56;5043909;28;20120;-74
2024/03/17 08:13:46;;;;;;;49.75;19.83;;;;;;;12.03;79.58;93354.56;5044749;28;20480;-74
2024/03/17 08:16:12;;;;;;;36.80;16.83;;;;;;;11.76;78.36;93330.88;5041918;28;20181;-74
2024/03/17 08:18:37;;;;;;;;;;;;;;;12.06;80.66;93361.09;5033485;28;20432;-74
2024/03/17 08:21:04;;;;;;;33.67;16.30;;;;;;;11.76;79.58;93359.97;5039563;28;19923;-74
2024/03/17 08:23:30;;;;;;;44.67;18.65;;;;;;;12.00;81.46;93334.38;5032227;28;20034;-74
2024/03/17 08:26:00;;;;;;;40.67;17.65;;;;;;;12.32;80.18;93354.06;5042717;28;20049;-73
2024/03/17 08:28:27;;;;;;;34.08;15.45;;;;;;;12.08;78.11;93350.59;5043437;28;20124;-74
2024/03/17 08:31:00;;;;;;;40.03;17.15;;;;;;;12.07;79.18;93343.88;5037885;28;20033;-75
2024/03/17 08:33:27;;;;;;;27.10;14.52;;;;;;;11.84;77.72;93286.84;5040813;28;20043;-75
2024/03/17 08:36:03;;;;;;;23.48;13.98;;;;;;;12.73;78.09;93359.47;5042703;28;20473;-75
2024/03/17 08:38:31;;;;;;;34.85;14.95;;;;;;;12.27;79.22;93339.25;5039366;28;20040;-75
2024/03/17 08:40:58;;;;;;;21.63;13.23;;;;;;;12.70;77.46;93350.41;5039757;28;20501;-75
2024/03/17 08:43:24;;;;;;;18.08;11.90;;;;;;;12.56;77.02;93331.75;5039936;28;20052;-75
2024/03/17 08:45:55;;;;;;;;;;;;;;;13.28;78.57;93357.72;5038867;28;20037;-75
2024/03/17 08:48:21;;;;;;;25.33;12.35;;;;;;;12.93;75.02;93325.72;5040366;28;19986;-75
2024/03/17 08:50:53;;;;;;;29.15;14.13;;;;;;;13.41;76.54;93312.88;5040641;28;20036;-76
2024/03/17 08:53:20;;;;;;;21.73;12.48;;;;;;;12.70;75.33;93316.91;5038129;28;20043;-76
2024/03/17 08:55:46;;;;;;;19.25;11.75;;;;;;;12.82;72.95;93321.28;5037807;28;20037;-76
2024/03/17 08:58:11;;;;;;;20.15;10.88;;;;;;;13.08;73.84;93345.94;5041787;28;20910;-76
2024/03/17 09:00:37;;;;;;;22.67;13.55;;;;;;;12.77;73.20;93329.69;5040743;28;20028;-76
2024/03/17 09:03:03;;;;;;;25.05;12.85;;;;;;;12.87;71.29;93349.78;5039750;28;20056;-76
2024/03/17 09:05:29;;;;;;;18.23;11.20;;;;;;;12.93;70.13;93302.50;5040589;28;20029;-76
2024/03/17 09:07:55;;;;;;;18.02;10.63;;;;;;;13.46;69.54;93300.09;5040882;28;20036;-76
2024/03/17 09:10:21;;;;;;;21.02;11.90;;;;;;;13.66;70.15;93301.53;5041911;28;20071;-76
2024/03/17 09:12:47;;;;;;;24.55;12.27;;;;;;;13.63;73.75;93265.88;5040020;28;20037;-76
2024/03/17 09:15:13;;;;;;;23.17;11.73;;;;;;;14.34;71.68;93336.47;5038942;28;20052;-75
2024/03/17 09:17:39;;;;;;;25.15;12.35;;;;;;;14.17;70.75;93285.50;5041004;28;20033;-75
2024/03/17 09:20:29;;;;;;;19.48;11.48;;;;;;;14.81;69.86;93338.09;5041212;28;20033;-75
2024/03/17 09:22:55;;;;;;;31.55;11.18;;;;;;;14.11;66.81;93322.56;5044488;28;20559;-76
2024/03/17 09:25:21;;;;;;;12.02;6.88;;;;;;;13.39;61.45;93314.09;5045422;28;20037;-76
2024/03/17 09:27:46;;;;;;;17.90;7.93;;;;;;;13.74;64.35;93321.84;5047638;28;20489;-76
2024/03/17 09:30:12;;;;;;;12.88;8.43;;;;;;;13.74;61.05;93342.50;5044970;28;20033;-76
2024/03/17 09:32:38;;;;;;;9.93;6.78;;;;;;;14.09;64.08;93315.06;5046445;28;20953;-76
2024/03/17 09:35:05;;;;;;;10.73;5.65;;;;;;;14.36;59.62;93321.50;5047459;28;20083;-76
2024/03/17 09:37:31;;;;;;;24.95;10.57;;;;;;;13.90;67.16;93296.34;5044654;28;20645;-75
2024/03/17 09:40:00;;;;;;;23.27;10.38;;;;;;;13.83;66.05;93256.94;5043616;28;20118;-75
2024/03/17 09:42:27;;;;;;;18.83;10.75;;;;;;;14.37;66.54;93317.91;5046476;28;20044;-76
2024/03/17 09:44:54;;;;;;;25.60;11.27;;;;;;;14.36;68.61;93265.44;5045070;28;20044;-77
2024/03/17 09:47:21;;;;;;;11.45;7.10;;;;;;;14.70;62.86;93287.97;5043371;28;20086;-74
2024/03/17 09:49:48;;;;;;;7.65;4.95;;;;;;;14.07;59.32;93280.16;5040625;28;20105;-74
2024/03/17 09:52:24;;;;;;;6.90;4.90;;;;;;;13.22;57.70;93232.22;5043538;28;20087;-74
2024/03/17 09:55:01;;;;;;;6.95;4.80;;;;;;;13.28;58.37;93292.47;5038422;28;20141;-75
2024/03/17 09:57:28;;;;;;;7.10;4.93;;;;;;;13.10;58.38;93307.00;5046150;28;20814;-75
2024/03/17 09:59:54;;;;;;;7.80;5.55;;;;;;;13.41;58.01;93292.22;5041993;28;20036;-77
2024/03/17 10:02:21;;;;;;;7.45;5.22;;;;;;;14.25;61.23;93326.47;5043144;28;20057;-76
2024/03/17 10:04:46;;;;;;;;;;;;;;;14.69;60.33;93332.94;5042560;28;20137;-75
2024/03/17 10:07:12;;;;;;;7.35;5.60;;;;;;;14.89;55.91;93329.97;5046406;28;20062;-75
2024/03/17 10:09:38;;;;;;;10.95;6.72;;;;;;;14.89;58.03;93316.22;5047572;28;20032;-73
2024/03/17 10:12:05;;;;;;;8.38;5.50;;;;;;;14.68;56.80;93328.81;5041899;28;20085;-74
2024/03/17 10:14:31;;;;;;;7.40;4.93;;;;;;;14.76;56.93;93315.50;5038240;28;20031;-74
2024/03/17 10:16:56;;;;;;;7.72;5.68;;;;;;;14.41;57.42;93342.28;5041834;28;20036;-74
2024/03/17 10:19:27;;;;;;;7.60;5.72;;;;;;;13.47;59.90;93303.47;5041559;28;20041;-74
2024/03/17 10:22:00;;;;;;;7.53;4.60;;;;;;;13.72;58.59;93292.91;5044233;28;20389;-74
2024/03/17 10:24:28;;;;;;;6.43;4.38;;;;;;;14.33;58.20;93338.25;5036222;28;20044;-74
2024/03/17 10:27:02;;;;;;;9.68;4.72;;;;;;;14.27;57.05;93337.34;5035674;28;20465;-73
2024/03/17 10:29:30;;;;;;;8.60;4.57;;;;;;;13.87;57.05;93291.63;5036685;28;20037;-74
2024/03/17 10:32:18;;;;;;;7.85;4.00;;;;;;;13.97;57.92;93328.00;5041451;28;20374;-73
2024/03/17 10:34:44;;;;;;;7.15;4.55;;;;;;;13.90;56.67;93343.59;5043482;28;20033;-73
2024/03/17 10:37:17;;;;;;;7.97;4.47;;;;;;;13.37;58.14;93236.91;5033279;28;20056;-73
2024/03/17 10:39:43;;;;;;;7.93;4.63;;;;;;;13.95;58.90;93324.88;5042688;28;20037;-73
2024/03/17 10:42:11;;;;;;;7.10;4.93;;;;;;;13.27;58.10;93271.03;5043167;28;20040;-73
2024/03/17 10:44:38;;;;;;;6.53;5.03;;;;;;;13.65;59.98;93341.28;5043327;28;20390;-73
2024/03/17 10:47:11;;;;;;;6.00;4.22;;;;;;;12.95;60.21;93312.59;5046087;28;20108;-73
2024/03/17 10:49:38;;;;;;;7.70;4.75;;;;;;;13.36;62.68;93331.59;5042618;28;20033;-73
2024/03/17 10:52:05;;;;;;;6.68;4.60;;;;;;;12.91;60.37;93309.66;5041152;28;20030;-73
2024/03/17 10:54:32;;;;;;;8.52;4.97;;;;;;;13.07;60.69;93281.66;5043337;28;20132;-73
2024/03/17 10:57:06;;;;;;;7.30;4.65;;;;;;;13.04;60.56;93295.78;5042740;28;20057;-73
2024/03/17 10:59:50;;;;;;;8.30;5.30;;;;;;;12.97;60.68;93305.44;5032531;28;20032;-73
2024/03/17 11:02:36;;;;;;;6.55;5.05;;;;;;;13.07;60.44;93338.41;5034862;28;20057;-73
2024/03/17 11:05:19;;;;;;;8.38;5.35;;;;;;;13.14;61.67;93333.16;5039110;28;20039;-73
2024/03/17 11:07:47;;;;;;;6.80;4.57;;;;;;;13.33;61.92;93311.41;5035571;28;20112;-73
2024/03/17 11:10:22;;;;;;;6.13;4.30;;;;;;;13.42;59.27;93332.50;5040337;28;20028;-74
2024/03/17 11:12:55;;;;;;;5.82;4.72;;;;;;;13.46;58.63;93331.06;5043088;28;20481;-74
2024/03/17 11:15:30;;;;;;;6.75;5.07;;;;;;;13.19;59.88;93330.69;5039390;28;20499;-74
2024/03/17 11:18:21;;;;;;;5.85;4.25;;;;;;;12.77;59.49;93321.19;5036834;28;20040;-73
2024/03/17 11:21:11;;;;;;;6.43;4.32;;;;;;;12.75;59.44;93329.16;5039884;28;20032;-74
2024/03/17 11:23:38;;;;;;;6.88;4.15;;;;;;;12.79;57.90;93332.06;5043970;28;20060;-74
2024/03/17 11:26:05;;;;;;;5.68;3.97;;;;;;;13.00;55.86;93342.88;5036858;28;20057;-73